sensor_id;sensor_type;location;lat;lon;timestamp;P1;durP1;ratioP1;P2;durP2;ratioP2
21741;SDS011;11033;47.490;11.116;2023-05-07T00:00:58;6.20;;;5.30;;
21741;SDS011;11033;47.490;11.116;2023-05-07T00:03:24;5.85;;;4.95;;
21741;SDS011;11033;47.490;11.116;2023-05-07T00:05:51;7.78;;;5.55;;
21741;SDS011;11033;47.490;11.116;2023-05-07T00:08:17;6.53;;;6.00;;
21741;SDS011;11033;47.490;11.116;2023-05-07T00:10:43;6.63;;;5.18;;
21741;SDS011;11033;47.490;11.116;2023-05-07T00:13:08;7.13;;;5.43;;
21741;SDS011;11033;47.490;11.116;2023-05-07T00:15:33;6.35;;;5.32;;
21741;SDS011;11033;47.490;11.116;2023-05-07T00:17:59;6.43;;;5.85;;
21741;SDS011;11033;47.490;11.116;2023-05-07T00:20:24;6.50;;;5.85;;
21741;SDS011;11033;47.490;11.116;2023-05-07T00:22:50;6.35;;;5.85;;
21741;SDS011;11033;47.490;11.116;2023-05-07T00:25:15;6.10;;;5.13;;
21741;SDS011;11033;47.490;11.116;2023-05-07T00:27:40;6.90;;;5.28;;
21741;SDS011;11033;47.490;11.116;2023-05-07T00:30:06;6.13;;;5.63;;
21741;SDS011;11033;47.490;11.116;2023-05-07T00:32:32;5.75;;;5.20;;
21741;SDS011;11033;47.490;11.116;2023-05-07T00:34:57;6.80;;;5.23;;
21741;SDS011;11033;47.490;11.116;2023-05-07T00:37:22;6.55;;;5.82;;
21741;SDS011;11033;47.490;11.116;2023-05-07T00:39:47;5.27;;;4.87;;
21741;SDS011;11033;47.490;11.116;2023-05-07T00:42:13;6.63;;;5.43;;
21741;SDS011;11033;47.490;11.116;2023-05-07T00:44:39;6.90;;;5.25;;
21741;SDS011;11033;47.490;11.116;2023-05-07T00:47:05;8.73;;;5.90;;
21741;SDS011;11033;47.490;11.116;2023-05-07T00:49:35;5.82;;;5.32;;
21741;SDS011;11033;47.490;11.116;2023-05-07T00:52:06;6.40;;;5.80;;
21741;SDS011;11033;47.490;11.116;2023-05-07T00:54:32;8.27;;;5.15;;
21741;SDS011;11033;47.490;11.116;2023-05-07T00:56:58;7.82;;;5.43;;
21741;SDS011;11033;47.490;11.116;2023-05-07T00:59:24;7.72;;;4.60;;
21741;SDS011;11033;47.490;11.116;2023-05-07T01:01:49;5.57;;;4.85;;
21741;SDS011;11033;47.490;11.116;2023-05-07T01:04:15;5.72;;;5.13;;
21741;SDS011;11033;47.490;11.116;2023-05-07T01:06:40;5.60;;;4.53;;
21741;SDS011;11033;47.490;11.116;2023-05-07T01:09:05;4.78;;;4.40;;
21741;SDS011;11033;47.490;11.116;2023-05-07T01:11:31;6.07;;;5.28;;
21741;SDS011;11033;47.490;11.116;2023-05-07T01:13:57;9.98;;;6.05;;
21741;SDS011;11033;47.490;11.116;2023-05-07T01:16:24;6.53;;;5.47;;
21741;SDS011;11033;47.490;11.116;2023-05-07T01:18:50;7.93;;;5.80;;
21741;SDS011;11033;47.490;11.116;2023-05-07T01:21:15;6.57;;;5.53;;
21741;SDS011;11033;47.490;11.116;2023-05-07T01:23:42;5.30;;;4.90;;
21741;SDS011;11033;47.490;11.116;2023-05-07T01:26:09;6.20;;;5.60;;
21741;SDS011;11033;47.490;11.116;2023-05-07T01:28:35;5.93;;;5.33;;
21741;SDS011;11033;47.490;11.116;2023-05-07T01:31:01;6.77;;;5.50;;
21741;SDS011;11033;47.490;11.116;2023-05-07T01:33:28;6.65;;;5.35;;
21741;SDS011;11033;47.490;11.116;2023-05-07T01:35:56;5.75;;;5.30;;
21741;SDS011;11033;47.490;11.116;2023-05-07T01:38:25;5.25;;;4.75;;
21741;SDS011;11033;47.490;11.116;2023-05-07T01:40:51;5.65;;;4.97;;
21741;SDS011;11033;47.490;11.116;2023-05-07T01:43:18;6.13;;;5.53;;
21741;SDS011;11033;47.490;11.116;2023-05-07T01:45:44;6.38;;;5.05;;
21741;SDS011;11033;47.490;11.116;2023-05-07T01:48:10;6.00;;;5.45;;
21741;SDS011;11033;47.490;11.116;2023-05-07T01:50:37;5.35;;;4.85;;
21741;SDS011;11033;47.490;11.116;2023-05-07T01:53:03;6.75;;;5.32;;
21741;SDS011;11033;47.490;11.116;2023-05-07T01:55:29;6.35;;;5.13;;
21741;SDS011;11033;47.490;11.116;2023-05-07T01:57:54;6.13;;;4.75;;
21741;SDS011;11033;47.490;11.116;2023-05-07T02:00:19;5.20;;;4.80;;
21741;SDS011;11033;47.490;11.116;2023-05-07T02:02:45;5.13;;;4.70;;
21741;SDS011;11033;47.490;11.116;2023-05-07T02:05:10;5.60;;;5.10;;
21741;SDS011;11033;47.490;11.116;2023-05-07T02:07:36;5.20;;;4.70;;
21741;SDS011;11033;47.490;11.116;2023-05-07T02:10:01;7.33;;;4.90;;
21741;SDS011;11033;47.490;11.116;2023-05-07T02:12:26;5.60;;;5.10;;
21741;SDS011;11033;47.490;11.116;2023-05-07T02:14:52;8.07;;;5.68;;
21741;SDS011;11033;47.490;11.116;2023-05-07T02:17:17;5.15;;;4.75;;
21741;SDS011;11033;47.490;11.116;2023-05-07T02:19:43;6.80;;;5.18;;
21741;SDS011;11033;47.490;11.116;2023-05-07T02:22:09;5.37;;;4.87;;
21741;SDS011;11033;47.490;11.116;2023-05-07T02:24:35;5.50;;;5.00;;
21741;SDS011;11033;47.490;11.116;2023-05-07T02:27:00;5.18;;;4.78;;
21741;SDS011;11033;47.490;11.116;2023-05-07T02:29:26;7.95;;;4.80;;
21741;SDS011;11033;47.490;11.116;2023-05-07T02:31:51;7.63;;;5.43;;
21741;SDS011;11033;47.490;11.116;2023-05-07T02:34:17;6.03;;;5.30;;
21741;SDS011;11033;47.490;11.116;2023-05-07T02:36:43;10.00;;;5.38;;
21741;SDS011;11033;47.490;11.116;2023-05-07T02:39:09;5.20;;;4.70;;
21741;SDS011;11033;47.490;11.116;2023-05-07T02:41:34;6.00;;;5.50;;
21741;SDS011;11033;47.490;11.116;2023-05-07T02:43:59;5.55;;;4.35;;
21741;SDS011;11033;47.490;11.116;2023-05-07T02:46:25;5.75;;;5.25;;
21741;SDS011;11033;47.490;11.116;2023-05-07T02:48:50;5.75;;;5.18;;
21741;SDS011;11033;47.490;11.116;2023-05-07T02:51:17;5.47;;;4.97;;
21741;SDS011;11033;47.490;11.116;2023-05-07T02:53:45;5.47;;;5.03;;
21741;SDS011;11033;47.490;11.116;2023-05-07T02:56:10;7.18;;;5.22;;
21741;SDS011;11033;47.490;11.116;2023-05-07T02:58:36;5.68;;;4.93;;
21741;SDS011;11033;47.490;11.116;2023-05-07T03:01:01;5.90;;;4.97;;
21741;SDS011;11033;47.490;11.116;2023-05-07T03:03:26;5.70;;;5.03;;
21741;SDS011;11033;47.490;11.116;2023-05-07T03:05:52;5.38;;;4.88;;
21741;SDS011;11033;47.490;11.116;2023-05-07T03:08:17;5.83;;;5.10;;
21741;SDS011;11033;47.490;11.116;2023-05-07T03:10:42;5.68;;;5.18;;
21741;SDS011;11033;47.490;11.116;2023-05-07T03:13:08;5.68;;;4.82;;
21741;SDS011;11033;47.490;11.116;2023-05-07T03:15:33;4.87;;;4.43;;
21741;SDS011;11033;47.490;11.116;2023-05-07T03:17:58;7.03;;;5.47;;
21741;SDS011;11033;47.490;11.116;2023-05-07T03:20:23;11.63;;;5.55;;
21741;SDS011;11033;47.490;11.116;2023-05-07T03:22:49;4.93;;;4.53;;
21741;SDS011;11033;47.490;11.116;2023-05-07T03:25:15;5.88;;;5.35;;
21741;SDS011;11033;47.490;11.116;2023-05-07T03:27:40;6.23;;;4.80;;
21741;SDS011;11033;47.490;11.116;2023-05-07T03:30:07;7.20;;;5.38;;
21741;SDS011;11033;47.490;11.116;2023-05-07T03:32:33;6.38;;;5.00;;
21741;SDS011;11033;47.490;11.116;2023-05-07T03:35:00;5.80;;;5.30;;
21741;SDS011;11033;47.490;11.116;2023-05-07T03:37:25;5.50;;;5.10;;
21741;SDS011;11033;47.490;11.116;2023-05-07T03:39:51;8.35;;;5.65;;
21741;SDS011;11033;47.490;11.116;2023-05-07T03:42:16;4.83;;;4.43;;
21741;SDS011;11033;47.490;11.116;2023-05-07T03:44:41;5.85;;;5.32;;
21741;SDS011;11033;47.490;11.116;2023-05-07T03:47:06;4.57;;;4.18;;
21741;SDS011;11033;47.490;11.116;2023-05-07T03:49:32;5.20;;;4.70;;
21741;SDS011;11033;47.490;11.116;2023-05-07T03:51:58;6.85;;;5.07;;
21741;SDS011;11033;47.490;11.116;2023-05-07T03:54:23;6.67;;;5.37;;
21741;SDS011;11033;47.490;11.116;2023-05-07T03:56:48;6.03;;;5.53;;
21741;SDS011;11033;47.490;11.116;2023-05-07T03:59:13;5.70;;;5.17;;
21741;SDS011;11033;47.490;11.116;2023-05-07T04:01:39;6.93;;;4.78;;
21741;SDS011;11033;47.490;11.116;2023-05-07T04:04:04;5.15;;;4.57;;
21741;SDS011;11033;47.490;11.116;2023-05-07T04:06:30;5.00;;;4.60;;
21741;SDS011;11033;47.490;11.116;2023-05-07T04:08:56;6.78;;;5.47;;
21741;SDS011;11033;47.490;11.116;2023-05-07T04:11:21;7.43;;;4.95;;
21741;SDS011;11033;47.490;11.116;2023-05-07T04:13:46;7.28;;;5.43;;
21741;SDS011;11033;47.490;11.116;2023-05-07T04:16:12;10.00;;;5.05;;
21741;SDS011;11033;47.490;11.116;2023-05-07T04:18:37;6.35;;;5.75;;
21741;SDS011;11033;47.490;11.116;2023-05-07T04:21:03;5.68;;;4.70;;
21741;SDS011;11033;47.490;11.116;2023-05-07T04:23:28;9.27;;;5.18;;
21741;SDS011;11033;47.490;11.116;2023-05-07T04:25:53;5.03;;;4.63;;
21741;SDS011;11033;47.490;11.116;2023-05-07T04:28:19;5.13;;;4.72;;
21741;SDS011;11033;47.490;11.116;2023-05-07T04:30:44;9.95;;;5.28;;
21741;SDS011;11033;47.490;11.116;2023-05-07T04:33:10;6.27;;;4.83;;
21741;SDS011;11033;47.490;11.116;2023-05-07T04:35:35;10.43;;;5.43;;
21741;SDS011;11033;47.490;11.116;2023-05-07T04:38:01;5.32;;;4.85;;
21741;SDS011;11033;47.490;11.116;2023-05-07T04:40:26;8.23;;;4.55;;
21741;SDS011;11033;47.490;11.116;2023-05-07T04:42:51;5.63;;;5.13;;
21741;SDS011;11033;47.490;11.116;2023-05-07T04:45:18;6.30;;;5.45;;
21741;SDS011;11033;47.490;11.116;2023-05-07T04:47:43;7.57;;;5.90;;
21741;SDS011;11033;47.490;11.116;2023-05-07T04:50:08;9.63;;;6.27;;
21741;SDS011;11033;47.490;11.116;2023-05-07T04:52:34;6.38;;;5.82;;
21741;SDS011;11033;47.490;11.116;2023-05-07T04:54:59;6.82;;;6.13;;
21741;SDS011;11033;47.490;11.116;2023-05-07T04:57:25;6.32;;;5.72;;
21741;SDS011;11033;47.490;11.116;2023-05-07T04:59:51;8.30;;;5.50;;
21741;SDS011;11033;47.490;11.116;2023-05-07T05:02:16;6.10;;;5.50;;
21741;SDS011;11033;47.490;11.116;2023-05-07T05:04:42;6.93;;;6.23;;
21741;SDS011;11033;47.490;11.116;2023-05-07T05:07:07;7.47;;;5.80;;
21741;SDS011;11033;47.490;11.116;2023-05-07T05:09:32;7.00;;;6.30;;
21741;SDS011;11033;47.490;11.116;2023-05-07T05:11:58;8.10;;;5.60;;
21741;SDS011;11033;47.490;11.116;2023-05-07T05:14:24;7.13;;;5.97;;
21741;SDS011;11033;47.490;11.116;2023-05-07T05:16:49;5.97;;;5.38;;
21741;SDS011;11033;47.490;11.116;2023-05-07T05:19:14;5.67;;;5.20;;
21741;SDS011;11033;47.490;11.116;2023-05-07T05:21:39;5.80;;;5.32;;
21741;SDS011;11033;47.490;11.116;2023-05-07T05:24:05;5.68;;;5.28;;
21741;SDS011;11033;47.490;11.116;2023-05-07T05:26:30;6.28;;;5.70;;
21741;SDS011;11033;47.490;11.116;2023-05-07T05:28:56;6.05;;;5.55;;
21741;SDS011;11033;47.490;11.116;2023-05-07T05:31:21;6.00;;;5.50;;
21741;SDS011;11033;47.490;11.116;2023-05-07T05:33:46;5.82;;;5.32;;
21741;SDS011;11033;47.490;11.116;2023-05-07T05:36:12;6.20;;;5.13;;
21741;SDS011;11033;47.490;11.116;2023-05-07T05:38:38;5.82;;;5.32;;
21741;SDS011;11033;47.490;11.116;2023-05-07T05:41:04;6.45;;;5.82;;
21741;SDS011;11033;47.490;11.116;2023-05-07T05:43:29;6.30;;;5.80;;
21741;SDS011;11033;47.490;11.116;2023-05-07T05:45:55;6.20;;;5.60;;
21741;SDS011;11033;47.490;11.116;2023-05-07T05:48:21;8.75;;;5.65;;
21741;SDS011;11033;47.490;11.116;2023-05-07T05:50:46;5.20;;;4.90;;
21741;SDS011;11033;47.490;11.116;2023-05-07T05:53:11;6.90;;;6.30;;
21741;SDS011;11033;47.490;11.116;2023-05-07T05:55:37;6.72;;;6.07;;
21741;SDS011;11033;47.490;11.116;2023-05-07T05:58:02;5.40;;;5.00;;
21741;SDS011;11033;47.490;11.116;2023-05-07T06:00:28;7.47;;;6.25;;
21741;SDS011;11033;47.490;11.116;2023-05-07T06:02:54;6.72;;;5.68;;
21741;SDS011;11033;47.490;11.116;2023-05-07T06:05:19;6.10;;;5.53;;
21741;SDS011;11033;47.490;11.116;2023-05-07T06:07:44;8.05;;;6.35;;
21741;SDS011;11033;47.490;11.116;2023-05-07T06:10:10;6.18;;;5.68;;
21741;SDS011;11033;47.490;11.116;2023-05-07T06:12:35;7.93;;;5.63;;
21741;SDS011;11033;47.490;11.116;2023-05-07T06:15:00;6.53;;;5.77;;
21741;SDS011;11033;47.490;11.116;2023-05-07T06:17:26;6.13;;;5.43;;
21741;SDS011;11033;47.490;11.116;2023-05-07T06:19:51;5.95;;;5.38;;
21741;SDS011;11033;47.490;11.116;2023-05-07T06:22:17;6.97;;;6.28;;
21741;SDS011;11033;47.490;11.116;2023-05-07T06:24:42;7.50;;;5.57;;
21741;SDS011;11033;47.490;11.116;2023-05-07T06:27:07;6.03;;;5.63;;
21741;SDS011;11033;47.490;11.116;2023-05-07T06:29:33;6.63;;;6.03;;
21741;SDS011;11033;47.490;11.116;2023-05-07T06:32:05;6.50;;;6.10;;
21741;SDS011;11033;47.490;11.116;2023-05-07T06:34:35;6.85;;;6.28;;
21741;SDS011;11033;47.490;11.116;2023-05-07T06:37:00;6.97;;;6.47;;
21741;SDS011;11033;47.490;11.116;2023-05-07T06:39:26;7.70;;;6.47;;
21741;SDS011;11033;47.490;11.116;2023-05-07T06:41:51;6.50;;;6.00;;
21741;SDS011;11033;47.490;11.116;2023-05-07T06:44:16;6.53;;;5.93;;
21741;SDS011;11033;47.490;11.116;2023-05-07T06:46:42;6.80;;;6.30;;
21741;SDS011;11033;47.490;11.116;2023-05-07T06:49:07;7.07;;;6.57;;
21741;SDS011;11033;47.490;11.116;2023-05-07T06:51:35;7.05;;;6.47;;
21741;SDS011;11033;47.490;11.116;2023-05-07T06:54:01;7.00;;;6.43;;
21741;SDS011;11033;47.490;11.116;2023-05-07T06:56:26;7.18;;;6.35;;
21741;SDS011;11033;47.490;11.116;2023-05-07T06:58:51;6.87;;;6.27;;
21741;SDS011;11033;47.490;11.116;2023-05-07T07:01:17;6.57;;;6.00;;
21741;SDS011;11033;47.490;11.116;2023-05-07T07:03:42;6.80;;;6.40;;
21741;SDS011;11033;47.490;11.116;2023-05-07T07:06:07;7.20;;;6.60;;
21741;SDS011;11033;47.490;11.116;2023-05-07T07:08:33;7.30;;;6.80;;
21741;SDS011;11033;47.490;11.116;2023-05-07T07:10:59;8.18;;;7.47;;
21741;SDS011;11033;47.490;11.116;2023-05-07T07:13:24;8.00;;;7.40;;
21741;SDS011;11033;47.490;11.116;2023-05-07T07:15:50;7.75;;;7.25;;
21741;SDS011;11033;47.490;11.116;2023-05-07T07:18:16;8.45;;;7.80;;
21741;SDS011;11033;47.490;11.116;2023-05-07T07:20:41;7.87;;;7.27;;
21741;SDS011;11033;47.490;11.116;2023-05-07T07:23:06;7.50;;;7.00;;
21741;SDS011;11033;47.490;11.116;2023-05-07T07:25:32;8.27;;;7.50;;
21741;SDS011;11033;47.490;11.116;2023-05-07T07:27:57;7.43;;;6.93;;
21741;SDS011;11033;47.490;11.116;2023-05-07T07:30:23;3.03;;;2.80;;
21741;SDS011;11033;47.490;11.116;2023-05-07T07:32:48;3.63;;;3.30;;
21741;SDS011;11033;47.490;11.116;2023-05-07T07:35:13;3.93;;;3.00;;
21741;SDS011;11033;47.490;11.116;2023-05-07T07:37:39;4.70;;;3.45;;
21741;SDS011;11033;47.490;11.116;2023-05-07T07:40:04;2.80;;;2.60;;
21741;SDS011;11033;47.490;11.116;2023-05-07T07:42:30;4.22;;;3.33;;
21741;SDS011;11033;47.490;11.116;2023-05-07T07:44:55;2.90;;;2.70;;
21741;SDS011;11033;47.490;11.116;2023-05-07T07:47:22;5.97;;;3.60;;
21741;SDS011;11033;47.490;11.116;2023-05-07T07:49:47;3.75;;;2.83;;
21741;SDS011;11033;47.490;11.116;2023-05-07T07:52:12;3.23;;;3.03;;
21741;SDS011;11033;47.490;11.116;2023-05-07T07:54:38;2.73;;;2.40;;
21741;SDS011;11033;47.490;11.116;2023-05-07T07:57:03;3.10;;;2.70;;
21741;SDS011;11033;47.490;11.116;2023-05-07T07:59:28;3.40;;;3.10;;
21741;SDS011;11033;47.490;11.116;2023-05-07T08:01:53;5.37;;;2.70;;
21741;SDS011;11033;47.490;11.116;2023-05-07T08:04:21;2.92;;;2.60;;
21741;SDS011;11033;47.490;11.116;2023-05-07T08:06:46;3.00;;;2.77;;
21741;SDS011;11033;47.490;11.116;2023-05-07T08:09:12;2.87;;;2.57;;
21741;SDS011;11033;47.490;11.116;2023-05-07T08:11:37;2.85;;;2.58;;
21741;SDS011;11033;47.490;11.116;2023-05-07T08:14:03;3.30;;;3.00;;
21741;SDS011;11033;47.490;11.116;2023-05-07T08:16:28;2.00;;;1.80;;
21741;SDS011;11033;47.490;11.116;2023-05-07T08:18:54;2.33;;;2.03;;
21741;SDS011;11033;47.490;11.116;2023-05-07T08:21:19;2.40;;;2.20;;
21741;SDS011;11033;47.490;11.116;2023-05-07T08:23:45;2.10;;;1.90;;
21741;SDS011;11033;47.490;11.116;2023-05-07T08:26:10;4.43;;;2.03;;
21741;SDS011;11033;47.490;11.116;2023-05-07T08:28:36;6.72;;;6.32;;
21741;SDS011;11033;47.490;11.116;2023-05-07T08:31:01;7.70;;;7.13;;
21741;SDS011;11033;47.490;11.116;2023-05-07T08:33:26;8.05;;;7.45;;
21741;SDS011;11033;47.490;11.116;2023-05-07T08:35:52;7.18;;;6.80;;
21741;SDS011;11033;47.490;11.116;2023-05-07T08:38:17;7.30;;;6.90;;
21741;SDS011;11033;47.490;11.116;2023-05-07T08:40:43;7.68;;;7.22;;
21741;SDS011;11033;47.490;11.116;2023-05-07T08:43:08;6.43;;;6.07;;
21741;SDS011;11033;47.490;11.116;2023-05-07T08:45:36;3.33;;;2.38;;
21741;SDS011;11033;47.490;11.116;2023-05-07T08:48:05;3.15;;;2.30;;
21741;SDS011;11033;47.490;11.116;2023-05-07T08:50:35;6.90;;;6.43;;
21741;SDS011;11033;47.490;11.116;2023-05-07T08:53:02;7.10;;;6.70;;
21741;SDS011;11033;47.490;11.116;2023-05-07T08:55:28;7.28;;;6.90;;
21741;SDS011;11033;47.490;11.116;2023-05-07T08:57:54;7.43;;;6.88;;
21741;SDS011;11033;47.490;11.116;2023-05-07T09:00:19;7.17;;;6.87;;
21741;SDS011;11033;47.490;11.116;2023-05-07T09:02:45;7.72;;;7.13;;
21741;SDS011;11033;47.490;11.116;2023-05-07T09:05:10;6.70;;;6.30;;
21741;SDS011;11033;47.490;11.116;2023-05-07T09:07:35;7.40;;;7.00;;
21741;SDS011;11033;47.490;11.116;2023-05-07T09:10:02;7.05;;;6.75;;
21741;SDS011;11033;47.490;11.116;2023-05-07T09:12:29;7.30;;;6.75;;
21741;SDS011;11033;47.490;11.116;2023-05-07T09:14:54;7.45;;;6.88;;
21741;SDS011;11033;47.490;11.116;2023-05-07T09:17:20;7.18;;;6.80;;
21741;SDS011;11033;47.490;11.116;2023-05-07T09:19:45;7.50;;;7.10;;
21741;SDS011;11033;47.490;11.116;2023-05-07T09:22:11;7.50;;;7.10;;
21741;SDS011;11033;47.490;11.116;2023-05-07T09:24:37;7.75;;;7.25;;
21741;SDS011;11033;47.490;11.116;2023-05-07T09:27:05;7.28;;;6.95;;
21741;SDS011;11033;47.490;11.116;2023-05-07T09:29:33;6.88;;;6.35;;
21741;SDS011;11033;47.490;11.116;2023-05-07T09:32:03;7.50;;;7.07;;
21741;SDS011;11033;47.490;11.116;2023-05-07T09:34:30;6.38;;;5.97;;
21741;SDS011;11033;47.490;11.116;2023-05-07T09:36:56;7.72;;;7.20;;
21741;SDS011;11033;47.490;11.116;2023-05-07T09:39:23;7.45;;;6.95;;
21741;SDS011;11033;47.490;11.116;2023-05-07T09:41:49;7.80;;;7.40;;
21741;SDS011;11033;47.490;11.116;2023-05-07T09:44:16;7.72;;;7.15;;
21741;SDS011;11033;47.490;11.116;2023-05-07T09:46:42;8.10;;;7.70;;
21741;SDS011;11033;47.490;11.116;2023-05-07T09:49:13;7.55;;;7.15;;
21741;SDS011;11033;47.490;11.116;2023-05-07T09:51:48;7.88;;;7.28;;
21741;SDS011;11033;47.490;11.116;2023-05-07T09:54:15;7.40;;;6.72;;
21741;SDS011;11033;47.490;11.116;2023-05-07T09:56:42;7.68;;;7.18;;
21741;SDS011;11033;47.490;11.116;2023-05-07T09:59:08;7.55;;;7.05;;
21741;SDS011;11033;47.490;11.116;2023-05-07T10:01:37;8.23;;;7.60;;
21741;SDS011;11033;47.490;11.116;2023-05-07T10:04:05;8.00;;;7.50;;
21741;SDS011;11033;47.490;11.116;2023-05-07T10:06:33;7.43;;;7.03;;
21741;SDS011;11033;47.490;11.116;2023-05-07T10:08:59;7.07;;;6.68;;
21741;SDS011;11033;47.490;11.116;2023-05-07T10:11:25;7.82;;;7.22;;
21741;SDS011;11033;47.490;11.116;2023-05-07T10:13:52;7.93;;;7.53;;
21741;SDS011;11033;47.490;11.116;2023-05-07T10:16:18;8.13;;;7.63;;
21741;SDS011;11033;47.490;11.116;2023-05-07T10:18:44;8.23;;;7.82;;
21741;SDS011;11033;47.490;11.116;2023-05-07T10:21:16;7.85;;;7.45;;
21741;SDS011;11033;47.490;11.116;2023-05-07T10:23:49;7.78;;;7.15;;
21741;SDS011;11033;47.490;11.116;2023-05-07T10:26:15;8.20;;;7.80;;
21741;SDS011;11033;47.490;11.116;2023-05-07T10:28:45;8.40;;;7.90;;
21741;SDS011;11033;47.490;11.116;2023-05-07T10:33:54;8.35;;;7.85;;
21741;SDS011;11033;47.490;11.116;2023-05-07T10:36:21;7.63;;;7.15;;
21741;SDS011;11033;47.490;11.116;2023-05-07T10:38:47;8.02;;;7.63;;
21741;SDS011;11033;47.490;11.116;2023-05-07T10:41:12;8.10;;;7.68;;
21741;SDS011;11033;47.490;11.116;2023-05-07T10:43:41;8.80;;;8.30;;
21741;SDS011;11033;47.490;11.116;2023-05-07T10:46:13;8.70;;;8.30;;
21741;SDS011;11033;47.490;11.116;2023-05-07T10:56:34;8.23;;;7.60;;
21741;SDS011;11033;47.490;11.116;2023-05-07T11:01:56;9.20;;;8.60;;
21741;SDS011;11033;47.490;11.116;2023-05-07T11:04:23;8.73;;;8.13;;
21741;SDS011;11033;47.490;11.116;2023-05-07T11:13:02;8.32;;;7.93;;
21741;SDS011;11033;47.490;11.116;2023-05-07T11:15:09;8.95;;;8.27;;
21741;SDS011;11033;47.490;11.116;2023-05-07T11:20:20;8.80;;;8.10;;
21741;SDS011;11033;47.490;11.116;2023-05-07T11:22:46;8.63;;;8.10;;
21741;SDS011;11033;47.490;11.116;2023-05-07T11:25:17;8.40;;;7.90;;
21741;SDS011;11033;47.490;11.116;2023-05-07T11:27:44;8.43;;;7.85;;
21741;SDS011;11033;47.490;11.116;2023-05-07T11:30:09;8.20;;;7.80;;
21741;SDS011;11033;47.490;11.116;2023-05-07T11:32:36;7.60;;;7.20;;
21741;SDS011;11033;47.490;11.116;2023-05-07T11:35:01;7.10;;;6.70;;
21741;SDS011;11033;47.490;11.116;2023-05-07T11:37:27;7.20;;;6.70;;
21741;SDS011;11033;47.490;11.116;2023-05-07T11:40:07;7.07;;;6.68;;
21741;SDS011;11033;47.490;11.116;2023-05-07T11:42:34;6.82;;;6.43;;
21741;SDS011;11033;47.490;11.116;2023-05-07T11:45:02;6.00;;;5.70;;
21741;SDS011;11033;47.490;11.116;2023-05-07T11:47:32;6.75;;;6.45;;
21741;SDS011;11033;47.490;11.116;2023-05-07T11:50:02;6.28;;;6.07;;
21741;SDS011;11033;47.490;11.116;2023-05-07T11:52:29;6.57;;;6.28;;
21741;SDS011;11033;47.490;11.116;2023-05-07T11:54:55;6.97;;;6.68;;
21741;SDS011;11033;47.490;11.116;2023-05-07T11:57:22;7.97;;;7.35;;
21741;SDS011;11033;47.490;11.116;2023-05-07T11:59:52;8.20;;;7.72;;
21741;SDS011;11033;47.490;11.116;2023-05-07T12:02:21;8.48;;;7.88;;
21741;SDS011;11033;47.490;11.116;2023-05-07T12:04:47;8.07;;;7.57;;
21741;SDS011;11033;47.490;11.116;2023-05-07T12:07:12;7.87;;;7.30;;
21741;SDS011;11033;47.490;11.116;2023-05-07T12:09:39;7.68;;;7.15;;
21741;SDS011;11033;47.490;11.116;2023-05-07T12:12:05;7.47;;;6.97;;
21741;SDS011;11033;47.490;11.116;2023-05-07T12:14:31;7.53;;;7.13;;
21741;SDS011;11033;47.490;11.116;2023-05-07T12:16:57;7.95;;;7.40;;
21741;SDS011;11033;47.490;11.116;2023-05-07T12:19:24;7.70;;;7.20;;
21741;SDS011;11033;47.490;11.116;2023-05-07T12:21:49;8.20;;;7.68;;
21741;SDS011;11033;47.490;11.116;2023-05-07T12:24:15;7.68;;;7.18;;
21741;SDS011;11033;47.490;11.116;2023-05-07T12:26:41;7.55;;;7.10;;
21741;SDS011;11033;47.490;11.116;2023-05-07T12:29:06;7.88;;;7.47;;
21741;SDS011;11033;47.490;11.116;2023-05-07T12:31:32;7.57;;;7.18;;
21741;SDS011;11033;47.490;11.116;2023-05-07T12:33:57;7.90;;;7.40;;
21741;SDS011;11033;47.490;11.116;2023-05-07T12:36:22;8.05;;;7.40;;
21741;SDS011;11033;47.490;11.116;2023-05-07T12:38:49;7.77;;;7.33;;
21741;SDS011;11033;47.490;11.116;2023-05-07T12:41:15;7.60;;;7.20;;
21741;SDS011;11033;47.490;11.116;2023-05-07T12:43:42;7.50;;;7.03;;
21741;SDS011;11033;47.490;11.116;2023-05-07T12:46:09;8.13;;;7.53;;
21741;SDS011;11033;47.490;11.116;2023-05-07T12:48:38;7.85;;;7.45;;
21741;SDS011;11033;47.490;11.116;2023-05-07T12:51:08;9.18;;;8.57;;
21741;SDS011;11033;47.490;11.116;2023-05-07T12:53:39;7.45;;;7.15;;
21741;SDS011;11033;47.490;11.116;2023-05-07T12:56:05;7.68;;;7.18;;
21741;SDS011;11033;47.490;11.116;2023-05-07T12:58:32;7.55;;;6.90;;
21741;SDS011;11033;47.490;11.116;2023-05-07T13:01:00;7.75;;;7.43;;
21741;SDS011;11033;47.490;11.116;2023-05-07T13:03:30;7.68;;;7.07;;
21741;SDS011;11033;47.490;11.116;2023-05-07T13:05:57;7.65;;;7.35;;
21741;SDS011;11033;47.490;11.116;2023-05-07T13:08:31;7.88;;;7.47;;
21741;SDS011;11033;47.490;11.116;2023-05-07T13:10:57;7.70;;;7.40;;
21741;SDS011;11033;47.490;11.116;2023-05-07T13:13:24;8.02;;;7.63;;
21741;SDS011;11033;47.490;11.116;2023-05-07T13:15:50;8.17;;;7.83;;
21741;SDS011;11033;47.490;11.116;2023-05-07T13:18:15;8.07;;;7.65;;
21741;SDS011;11033;47.490;11.116;2023-05-07T13:20:41;7.97;;;7.57;;
21741;SDS011;11033;47.490;11.116;2023-05-07T13:23:06;8.40;;;7.90;;
21741;SDS011;11033;47.490;11.116;2023-05-07T13:25:31;8.00;;;7.53;;
21741;SDS011;11033;47.490;11.116;2023-05-07T13:27:57;8.07;;;7.57;;
21741;SDS011;11033;47.490;11.116;2023-05-07T13:30:22;8.05;;;7.63;;
21741;SDS011;11033;47.490;11.116;2023-05-07T13:32:48;7.45;;;7.05;;
21741;SDS011;11033;47.490;11.116;2023-05-07T13:35:13;7.00;;;6.55;;
21741;SDS011;11033;47.490;11.116;2023-05-07T13:37:39;6.95;;;6.53;;
21741;SDS011;11033;47.490;11.116;2023-05-07T13:40:05;7.88;;;7.47;;
21741;SDS011;11033;47.490;11.116;2023-05-07T13:42:31;7.45;;;7.07;;
21741;SDS011;11033;47.490;11.116;2023-05-07T13:44:56;7.70;;;7.30;;
21741;SDS011;11033;47.490;11.116;2023-05-07T13:47:22;7.30;;;6.93;;
21741;SDS011;11033;47.490;11.116;2023-05-07T13:49:47;7.53;;;6.88;;
21741;SDS011;11033;47.490;11.116;2023-05-07T13:52:14;6.40;;;6.10;;
21741;SDS011;11033;47.490;11.116;2023-05-07T13:54:40;6.50;;;6.00;;
21741;SDS011;11033;47.490;11.116;2023-05-07T13:57:06;6.93;;;6.20;;
21741;SDS011;11033;47.490;11.116;2023-05-07T13:59:31;6.83;;;6.23;;
21741;SDS011;11033;47.490;11.116;2023-05-07T14:01:56;7.28;;;6.82;;
21741;SDS011;11033;47.490;11.116;2023-05-07T14:04:21;6.07;;;5.77;;
21741;SDS011;11033;47.490;11.116;2023-05-07T14:06:47;6.40;;;6.10;;
21741;SDS011;11033;47.490;11.116;2023-05-07T14:09:12;7.03;;;6.63;;
21741;SDS011;11033;47.490;11.116;2023-05-07T14:11:38;6.80;;;6.40;;
21741;SDS011;11033;47.490;11.116;2023-05-07T14:14:04;7.10;;;6.60;;
21741;SDS011;11033;47.490;11.116;2023-05-07T14:16:29;6.97;;;6.57;;
21741;SDS011;11033;47.490;11.116;2023-05-07T14:18:55;6.43;;;5.93;;
21741;SDS011;11033;47.490;11.116;2023-05-07T14:21:21;6.65;;;6.15;;
21741;SDS011;11033;47.490;11.116;2023-05-07T14:23:46;6.40;;;6.00;;
21741;SDS011;11033;47.490;11.116;2023-05-07T14:26:12;6.30;;;5.80;;
21741;SDS011;11033;47.490;11.116;2023-05-07T14:28:37;6.13;;;5.82;;
21741;SDS011;11033;47.490;11.116;2023-05-07T14:31:04;6.60;;;6.20;;
21741;SDS011;11033;47.490;11.116;2023-05-07T14:33:30;5.70;;;5.40;;
21741;SDS011;11033;47.490;11.116;2023-05-07T14:35:55;6.20;;;5.73;;
21741;SDS011;11033;47.490;11.116;2023-05-07T14:38:20;6.37;;;5.97;;
21741;SDS011;11033;47.490;11.116;2023-05-07T14:40:46;6.03;;;5.73;;
21741;SDS011;11033;47.490;11.116;2023-05-07T14:43:11;7.20;;;6.80;;
21741;SDS011;11033;47.490;11.116;2023-05-07T14:45:36;8.20;;;7.80;;
21741;SDS011;11033;47.490;11.116;2023-05-07T14:48:02;8.63;;;8.18;;